sensor_id;sensor_type;location;lat;lon;timestamp;P1;durP1;ratioP1;P2;durP2;ratioP2
39728;SDS011;25402;42.004;23.088;2023-12-04T00:01:22;11.13;;;5.57;;
39728;SDS011;25402;42.004;23.088;2023-12-04T00:03:50;15.68;;;6.30;;
39728;SDS011;25402;42.004;23.088;2023-12-04T00:06:18;11.20;;;5.25;;
39728;SDS011;25402;42.004;23.088;2023-12-04T00:08:45;12.95;;;5.75;;
39728;SDS011;25402;42.004;23.088;2023-12-04T00:11:12;12.85;;;6.13;;
39728;SDS011;25402;42.004;23.088;2023-12-04T00:13:39;10.55;;;4.95;;
39728;SDS011;25402;42.004;23.088;2023-12-04T00:16:07;16.92;;;6.03;;
39728;SDS011;25402;42.004;23.088;2023-12-04T00:18:36;13.55;;;5.50;;
39728;SDS011;25402;42.004;23.088;2023-12-04T00:21:03;12.85;;;5.43;;
39728;SDS011;25402;42.004;23.088;2023-12-04T00:23:31;16.73;;;6.30;;
39728;SDS011;25402;42.004;23.088;2023-12-04T00:25:58;11.65;;;5.28;;
39728;SDS011;25402;42.004;23.088;2023-12-04T00:28:25;18.95;;;5.55;;
39728;SDS011;25402;42.004;23.088;2023-12-04T00:30:54;11.98;;;5.70;;
39728;SDS011;25402;42.004;23.088;2023-12-04T00:33:21;14.93;;;6.35;;
39728;SDS011;25402;42.004;23.088;2023-12-04T00:35:49;10.55;;;5.07;;
39728;SDS011;25402;42.004;23.088;2023-12-04T00:38:16;11.88;;;6.05;;
39728;SDS011;25402;42.004;23.088;2023-12-04T00:40:44;14.32;;;6.32;;
39728;SDS011;25402;42.004;23.088;2023-12-04T00:43:11;14.63;;;5.63;;
39728;SDS011;25402;42.004;23.088;2023-12-04T00:45:38;13.05;;;5.63;;
39728;SDS011;25402;42.004;23.088;2023-12-04T00:48:05;13.90;;;5.55;;
39728;SDS011;25402;42.004;23.088;2023-12-04T00:50:32;8.93;;;5.45;;
39728;SDS011;25402;42.004;23.088;2023-12-04T00:53:00;16.30;;;5.95;;
39728;SDS011;25402;42.004;23.088;2023-12-04T00:55:27;10.75;;;5.93;;
39728;SDS011;25402;42.004;23.088;2023-12-04T00:57:54;12.50;;;5.88;;
39728;SDS011;25402;42.004;23.088;2023-12-04T01:00:22;10.50;;;5.68;;
39728;SDS011;25402;42.004;23.088;2023-12-04T01:02:49;10.65;;;5.53;;
39728;SDS011;25402;42.004;23.088;2023-12-04T01:05:16;11.30;;;5.50;;
39728;SDS011;25402;42.004;23.088;2023-12-04T01:07:43;11.55;;;5.75;;
39728;SDS011;25402;42.004;23.088;2023-12-04T01:10:11;13.15;;;5.03;;
39728;SDS011;25402;42.004;23.088;2023-12-04T01:12:38;12.25;;;5.53;;
39728;SDS011;25402;42.004;23.088;2023-12-04T01:15:06;11.43;;;5.88;;
39728;SDS011;25402;42.004;23.088;2023-12-04T01:17:34;12.65;;;5.28;;
39728;SDS011;25402;42.004;23.088;2023-12-04T01:20:01;10.63;;;5.68;;
39728;SDS011;25402;42.004;23.088;2023-12-04T01:22:30;11.50;;;5.72;;
39728;SDS011;25402;42.004;23.088;2023-12-04T01:24:57;12.10;;;5.80;;
39728;SDS011;25402;42.004;23.088;2023-12-04T01:27:25;13.32;;;5.57;;
39728;SDS011;25402;42.004;23.088;2023-12-04T01:29:52;13.32;;;5.53;;
39728;SDS011;25402;42.004;23.088;2023-12-04T01:32:19;11.20;;;5.50;;
39728;SDS011;25402;42.004;23.088;2023-12-04T01:34:46;11.75;;;5.35;;
39728;SDS011;25402;42.004;23.088;2023-12-04T01:37:13;11.27;;;5.80;;
39728;SDS011;25402;42.004;23.088;2023-12-04T01:39:40;9.57;;;5.43;;
39728;SDS011;25402;42.004;23.088;2023-12-04T01:42:07;12.02;;;5.30;;
39728;SDS011;25402;42.004;23.088;2023-12-04T01:44:37;11.68;;;5.75;;
39728;SDS011;25402;42.004;23.088;2023-12-04T01:47:04;10.15;;;5.45;;
39728;SDS011;25402;42.004;23.088;2023-12-04T01:49:32;11.02;;;5.40;;
39728;SDS011;25402;42.004;23.088;2023-12-04T01:51:59;15.25;;;5.35;;
39728;SDS011;25402;42.004;23.088;2023-12-04T01:54:27;12.95;;;5.38;;
39728;SDS011;25402;42.004;23.088;2023-12-04T01:56:54;14.63;;;6.03;;
39728;SDS011;25402;42.004;23.088;2023-12-04T01:59:21;19.80;;;6.13;;
39728;SDS011;25402;42.004;23.088;2023-12-04T02:01:50;15.02;;;6.30;;
39728;SDS011;25402;42.004;23.088;2023-12-04T02:04:18;18.75;;;6.38;;
39728;SDS011;25402;42.004;23.088;2023-12-04T02:06:45;25.13;;;6.38;;
39728;SDS011;25402;42.004;23.088;2023-12-04T02:09:12;22.13;;;6.90;;
39728;SDS011;25402;42.004;23.088;2023-12-04T02:11:41;26.98;;;6.63;;
39728;SDS011;25402;42.004;23.088;2023-12-04T02:14:08;21.10;;;7.20;;
39728;SDS011;25402;42.004;23.088;2023-12-04T02:16:36;29.48;;;6.82;;
39728;SDS011;25402;42.004;23.088;2023-12-04T02:19:08;31.38;;;7.15;;
39728;SDS011;25402;42.004;23.088;2023-12-04T02:21:38;24.90;;;7.50;;
39728;SDS011;25402;42.004;23.088;2023-12-04T02:24:07;31.38;;;7.80;;
39728;SDS011;25402;42.004;23.088;2023-12-04T02:26:36;25.35;;;7.55;;
39728;SDS011;25402;42.004;23.088;2023-12-04T02:29:11;25.83;;;7.25;;
39728;SDS011;25402;42.004;23.088;2023-12-04T02:31:41;30.35;;;7.85;;
39728;SDS011;25402;42.004;23.088;2023-12-04T02:34:09;27.85;;;7.15;;
39728;SDS011;25402;42.004;23.088;2023-12-04T02:36:40;21.63;;;7.57;;
39728;SDS011;25402;42.004;23.088;2023-12-04T02:39:10;26.67;;;7.78;;
39728;SDS011;25402;42.004;23.088;2023-12-04T02:41:37;19.88;;;7.35;;
39728;SDS011;25402;42.004;23.088;2023-12-04T02:44:05;24.17;;;7.25;;
39728;SDS011;25402;42.004;23.088;2023-12-04T02:46:32;18.73;;;7.05;;
39728;SDS011;25402;42.004;23.088;2023-12-04T02:48:59;21.42;;;7.28;;
39728;SDS011;25402;42.004;23.088;2023-12-04T02:51:26;21.05;;;7.10;;
39728;SDS011;25402;42.004;23.088;2023-12-04T02:53:53;22.73;;;7.65;;
39728;SDS011;25402;42.004;23.088;2023-12-04T02:56:21;19.25;;;7.00;;
39728;SDS011;25402;42.004;23.088;2023-12-04T02:58:48;19.60;;;7.18;;
39728;SDS011;25402;42.004;23.088;2023-12-04T03:01:15;17.95;;;6.45;;
39728;SDS011;25402;42.004;23.088;2023-12-04T03:03:42;22.20;;;6.70;;
39728;SDS011;25402;42.004;23.088;2023-12-04T03:06:10;25.52;;;7.30;;
39728;SDS011;25402;42.004;23.088;2023-12-04T03:08:37;23.50;;;6.32;;
39728;SDS011;25402;42.004;23.088;2023-12-04T03:11:04;32.60;;;7.75;;
39728;SDS011;25402;42.004;23.088;2023-12-04T03:13:33;26.70;;;7.32;;
39728;SDS011;25402;42.004;23.088;2023-12-04T03:16:00;23.80;;;6.80;;
39728;SDS011;25402;42.004;23.088;2023-12-04T03:18:27;25.13;;;6.78;;
39728;SDS011;25402;42.004;23.088;2023-12-04T03:20:54;25.83;;;7.93;;
39728;SDS011;25402;42.004;23.088;2023-12-04T03:23:21;27.67;;;7.22;;
39728;SDS011;25402;42.004;23.088;2023-12-04T03:25:48;35.45;;;8.38;;
39728;SDS011;25402;42.004;23.088;2023-12-04T03:28:15;34.40;;;8.20;;
39728;SDS011;25402;42.004;23.088;2023-12-04T03:30:44;30.58;;;7.60;;
39728;SDS011;25402;42.004;23.088;2023-12-04T03:33:11;28.02;;;7.72;;
39728;SDS011;25402;42.004;23.088;2023-12-04T03:35:38;28.02;;;7.88;;
39728;SDS011;25402;42.004;23.088;2023-12-04T03:38:05;30.10;;;7.57;;
39728;SDS011;25402;42.004;23.088;2023-12-04T03:40:32;30.25;;;7.50;;
39728;SDS011;25402;42.004;23.088;2023-12-04T03:42:59;30.80;;;7.82;;
39728;SDS011;25402;42.004;23.088;2023-12-04T03:45:26;20.17;;;8.50;;
39728;SDS011;25402;42.004;23.088;2023-12-04T03:47:55;28.88;;;7.22;;
39728;SDS011;25402;42.004;23.088;2023-12-04T03:50:22;29.70;;;8.55;;
39728;SDS011;25402;42.004;23.088;2023-12-04T03:52:49;27.10;;;8.32;;
39728;SDS011;25402;42.004;23.088;2023-12-04T03:55:16;25.08;;;9.25;;
39728;SDS011;25402;42.004;23.088;2023-12-04T03:57:44;26.33;;;7.57;;
39728;SDS011;25402;42.004;23.088;2023-12-04T04:00:12;25.85;;;9.32;;
39728;SDS011;25402;42.004;23.088;2023-12-04T04:02:39;13.40;;;7.05;;
39728;SDS011;25402;42.004;23.088;2023-12-04T04:05:10;17.17;;;7.10;;
39728;SDS011;25402;42.004;23.088;2023-12-04T04:07:37;14.50;;;6.70;;
39728;SDS011;25402;42.004;23.088;2023-12-04T04:10:06;22.35;;;6.55;;
39728;SDS011;25402;42.004;23.088;2023-12-04T04:12:33;14.60;;;7.18;;
39728;SDS011;25402;42.004;23.088;2023-12-04T04:15:01;18.80;;;6.72;;
39728;SDS011;25402;42.004;23.088;2023-12-04T04:17:29;14.70;;;7.43;;
39728;SDS011;25402;42.004;23.088;2023-12-04T04:19:57;17.27;;;7.68;;
39728;SDS011;25402;42.004;23.088;2023-12-04T04:22:26;15.40;;;7.25;;
39728;SDS011;25402;42.004;23.088;2023-12-04T04:24:53;46.97;;;8.32;;
39728;SDS011;25402;42.004;23.088;2023-12-04T04:27:20;22.52;;;7.35;;
39728;SDS011;25402;42.004;23.088;2023-12-04T04:29:47;22.13;;;6.93;;
39728;SDS011;25402;42.004;23.088;2023-12-04T04:32:14;25.98;;;6.85;;
39728;SDS011;25402;42.004;23.088;2023-12-04T04:34:41;27.60;;;6.75;;
39728;SDS011;25402;42.004;23.088;2023-12-04T04:37:08;27.67;;;6.75;;
39728;SDS011;25402;42.004;23.088;2023-12-04T04:39:36;31.38;;;6.18;;
39728;SDS011;25402;42.004;23.088;2023-12-04T04:42:04;17.17;;;6.82;;
39728;SDS011;25402;42.004;23.088;2023-12-04T04:44:31;17.45;;;6.63;;
39728;SDS011;25402;42.004;23.088;2023-12-04T04:46:58;20.80;;;6.75;;
39728;SDS011;25402;42.004;23.088;2023-12-04T04:49:26;12.25;;;6.30;;
39728;SDS011;25402;42.004;23.088;2023-12-04T04:51:53;17.20;;;7.20;;
39728;SDS011;25402;42.004;23.088;2023-12-04T04:54:20;19.73;;;6.68;;
39728;SDS011;25402;42.004;23.088;2023-12-04T04:56:49;14.38;;;6.20;;
39728;SDS011;25402;42.004;23.088;2023-12-04T04:59:16;15.82;;;6.72;;
39728;SDS011;25402;42.004;23.088;2023-12-04T05:01:43;13.05;;;6.15;;
39728;SDS011;25402;42.004;23.088;2023-12-04T05:04:10;16.55;;;6.15;;
39728;SDS011;25402;42.004;23.088;2023-12-04T05:06:37;17.80;;;6.85;;
39728;SDS011;25402;42.004;23.088;2023-12-04T05:09:04;17.77;;;6.85;;
39728;SDS011;25402;42.004;23.088;2023-12-04T05:11:31;16.58;;;6.68;;
39728;SDS011;25402;42.004;23.088;2023-12-04T05:13:59;21.00;;;7.47;;
39728;SDS011;25402;42.004;23.088;2023-12-04T05:16:27;18.63;;;6.90;;
39728;SDS011;25402;42.004;23.088;2023-12-04T05:18:53;21.50;;;8.40;;
39728;SDS011;25402;42.004;23.088;2023-12-04T05:21:20;25.30;;;7.90;;
39728;SDS011;25402;42.004;23.088;2023-12-04T05:23:47;24.02;;;7.32;;
39728;SDS011;25402;42.004;23.088;2023-12-04T05:26:15;16.92;;;6.57;;
39728;SDS011;25402;42.004;23.088;2023-12-04T05:28:42;24.35;;;6.55;;
39728;SDS011;25402;42.004;23.088;2023-12-04T05:31:10;24.27;;;7.07;;
39728;SDS011;25402;42.004;23.088;2023-12-04T05:33:37;26.35;;;7.68;;
39728;SDS011;25402;42.004;23.088;2023-12-04T05:36:04;22.88;;;7.78;;
39728;SDS011;25402;42.004;23.088;2023-12-04T05:38:32;19.98;;;6.75;;
39728;SDS011;25402;42.004;23.088;2023-12-04T05:40:59;21.83;;;8.32;;
39728;SDS011;25402;42.004;23.088;2023-12-04T05:43:26;22.45;;;8.00;;
39728;SDS011;25402;42.004;23.088;2023-12-04T05:45:53;26.70;;;7.88;;
39728;SDS011;25402;42.004;23.088;2023-12-04T05:48:23;27.30;;;8.05;;
39728;SDS011;25402;42.004;23.088;2023-12-04T05:51:04;20.05;;;7.35;;
39728;SDS011;25402;42.004;23.088;2023-12-04T05:53:33;29.27;;;7.60;;
39728;SDS011;25402;42.004;23.088;2023-12-04T05:56:01;24.70;;;7.78;;
39728;SDS011;25402;42.004;23.088;2023-12-04T05:58:28;32.50;;;8.68;;
39728;SDS011;25402;42.004;23.088;2023-12-04T06:00:55;22.23;;;8.15;;
39728;SDS011;25402;42.004;23.088;2023-12-04T06:03:24;19.42;;;7.75;;
39728;SDS011;25402;42.004;23.088;2023-12-04T06:05:51;19.30;;;7.40;;
39728;SDS011;25402;42.004;23.088;2023-12-04T06:08:18;25.13;;;7.82;;
39728;SDS011;25402;42.004;23.088;2023-12-04T06:10:45;21.15;;;8.10;;
39728;SDS011;25402;42.004;23.088;2023-12-04T06:13:12;24.02;;;9.00;;
39728;SDS011;25402;42.004;23.088;2023-12-04T06:15:39;51.40;;;13.18;;
39728;SDS011;25402;42.004;23.088;2023-12-04T06:18:07;25.45;;;10.63;;
39728;SDS011;25402;42.004;23.088;2023-12-04T06:20:36;23.90;;;11.07;;
39728;SDS011;25402;42.004;23.088;2023-12-04T06:23:03;29.77;;;11.20;;
39728;SDS011;25402;42.004;23.088;2023-12-04T06:25:31;22.77;;;9.13;;
39728;SDS011;25402;42.004;23.088;2023-12-04T06:27:59;26.63;;;9.88;;
39728;SDS011;25402;42.004;23.088;2023-12-04T06:30:27;22.85;;;10.07;;
39728;SDS011;25402;42.004;23.088;2023-12-04T06:32:55;22.35;;;9.95;;
39728;SDS011;25402;42.004;23.088;2023-12-04T06:35:24;20.00;;;8.35;;
39728;SDS011;25402;42.004;23.088;2023-12-04T06:37:53;32.50;;;12.73;;
39728;SDS011;25402;42.004;23.088;2023-12-04T06:40:21;32.03;;;10.13;;
39728;SDS011;25402;42.004;23.088;2023-12-04T06:42:49;19.73;;;9.25;;
39728;SDS011;25402;42.004;23.088;2023-12-04T06:45:18;24.52;;;8.15;;
39728;SDS011;25402;42.004;23.088;2023-12-04T06:47:48;16.88;;;7.18;;
39728;SDS011;25402;42.004;23.088;2023-12-04T06:50:17;24.08;;;9.38;;
39728;SDS011;25402;42.004;23.088;2023-12-04T06:52:46;21.08;;;9.70;;
39728;SDS011;25402;42.004;23.088;2023-12-04T06:55:15;21.63;;;9.82;;
39728;SDS011;25402;42.004;23.088;2023-12-04T06:57:42;23.52;;;8.65;;
39728;SDS011;25402;42.004;23.088;2023-12-04T07:00:10;39.25;;;14.95;;
39728;SDS011;25402;42.004;23.088;2023-12-04T07:02:39;30.45;;;10.65;;
39728;SDS011;25402;42.004;23.088;2023-12-04T07:05:06;47.00;;;14.95;;
39728;SDS011;25402;42.004;23.088;2023-12-04T07:07:34;25.85;;;11.70;;
39728;SDS011;25402;42.004;23.088;2023-12-04T07:10:01;22.75;;;8.43;;
39728;SDS011;25402;42.004;23.088;2023-12-04T07:12:29;19.88;;;8.68;;
39728;SDS011;25402;42.004;23.088;2023-12-04T07:14:56;15.18;;;7.05;;
39728;SDS011;25402;42.004;23.088;2023-12-04T07:17:24;19.15;;;6.57;;
39728;SDS011;25402;42.004;23.088;2023-12-04T07:19:51;16.50;;;6.55;;
39728;SDS011;25402;42.004;23.088;2023-12-04T07:22:18;18.50;;;6.15;;
39728;SDS011;25402;42.004;23.088;2023-12-04T07:24:45;17.13;;;6.63;;
39728;SDS011;25402;42.004;23.088;2023-12-04T07:27:13;17.15;;;6.25;;
39728;SDS011;25402;42.004;23.088;2023-12-04T07:29:43;17.00;;;6.13;;
39728;SDS011;25402;42.004;23.088;2023-12-04T07:32:10;11.52;;;4.80;;
39728;SDS011;25402;42.004;23.088;2023-12-04T07:34:37;16.33;;;6.20;;
39728;SDS011;25402;42.004;23.088;2023-12-04T07:37:05;14.10;;;5.88;;
39728;SDS011;25402;42.004;23.088;2023-12-04T07:39:33;20.73;;;7.63;;
39728;SDS011;25402;42.004;23.088;2023-12-04T07:42:02;13.18;;;6.82;;
39728;SDS011;25402;42.004;23.088;2023-12-04T07:44:29;16.92;;;6.65;;
39728;SDS011;25402;42.004;23.088;2023-12-04T07:46:58;12.35;;;6.30;;
39728;SDS011;25402;42.004;23.088;2023-12-04T07:49:24;19.02;;;6.35;;
39728;SDS011;25402;42.004;23.088;2023-12-04T07:51:53;14.35;;;5.82;;
39728;SDS011;25402;42.004;23.088;2023-12-04T07:54:20;16.52;;;5.80;;
39728;SDS011;25402;42.004;23.088;2023-12-04T07:56:51;15.75;;;6.40;;
39728;SDS011;25402;42.004;23.088;2023-12-04T07:59:18;12.60;;;5.45;;
39728;SDS011;25402;42.004;23.088;2023-12-04T08:01:45;16.55;;;7.35;;
39728;SDS011;25402;42.004;23.088;2023-12-04T08:04:14;24.08;;;9.15;;
39728;SDS011;25402;42.004;23.088;2023-12-04T08:06:41;12.82;;;6.18;;
39728;SDS011;25402;42.004;23.088;2023-12-04T08:09:09;21.13;;;7.18;;
39728;SDS011;25402;42.004;23.088;2023-12-04T08:11:38;13.68;;;6.32;;
39728;SDS011;25402;42.004;23.088;2023-12-04T08:14:06;18.85;;;7.30;;
39728;SDS011;25402;42.004;23.088;2023-12-04T08:16:34;16.80;;;6.80;;
39728;SDS011;25402;42.004;23.088;2023-12-04T08:19:03;16.10;;;6.88;;
39728;SDS011;25402;42.004;23.088;2023-12-04T08:21:32;14.90;;;6.82;;
39728;SDS011;25402;42.004;23.088;2023-12-04T08:24:00;13.95;;;6.10;;
39728;SDS011;25402;42.004;23.088;2023-12-04T08:26:38;13.90;;;5.57;;
39728;SDS011;25402;42.004;23.088;2023-12-04T08:29:05;23.20;;;6.90;;
39728;SDS011;25402;42.004;23.088;2023-12-04T08:31:32;14.13;;;6.05;;
39728;SDS011;25402;42.004;23.088;2023-12-04T08:33:59;17.23;;;6.22;;
39728;SDS011;25402;42.004;23.088;2023-12-04T08:36:27;12.32;;;6.32;;
39728;SDS011;25402;42.004;23.088;2023-12-04T08:38:55;19.70;;;8.40;;
39728;SDS011;25402;42.004;23.088;2023-12-04T08:41:22;42.90;;;12.90;;
39728;SDS011;25402;42.004;23.088;2023-12-04T08:43:49;38.47;;;14.10;;
39728;SDS011;25402;42.004;23.088;2023-12-04T08:46:16;16.48;;;7.25;;
39728;SDS011;25402;42.004;23.088;2023-12-04T08:48:43;15.07;;;6.35;;
39728;SDS011;25402;42.004;23.088;2023-12-04T08:51:14;17.40;;;6.72;;
39728;SDS011;25402;42.004;23.088;2023-12-04T08:53:42;12.73;;;6.03;;
39728;SDS011;25402;42.004;23.088;2023-12-04T08:56:10;14.63;;;7.25;;
39728;SDS011;25402;42.004;23.088;2023-12-04T08:58:37;13.10;;;6.20;;
39728;SDS011;25402;42.004;23.088;2023-12-04T09:01:05;14.23;;;6.32;;
39728;SDS011;25402;42.004;23.088;2023-12-04T09:03:32;14.85;;;5.78;;
39728;SDS011;25402;42.004;23.088;2023-12-04T09:06:00;11.02;;;5.63;;
39728;SDS011;25402;42.004;23.088;2023-12-04T09:08:27;13.70;;;6.10;;
39728;SDS011;25402;42.004;23.088;2023-12-04T09:10:54;12.43;;;6.10;;
39728;SDS011;25402;42.004;23.088;2023-12-04T09:13:23;11.20;;;5.25;;
39728;SDS011;25402;42.004;23.088;2023-12-04T09:15:51;11.45;;;5.70;;
39728;SDS011;25402;42.004;23.088;2023-12-04T09:18:19;17.00;;;5.93;;
39728;SDS011;25402;42.004;23.088;2023-12-04T09:20:48;11.25;;;5.82;;
39728;SDS011;25402;42.004;23.088;2023-12-04T09:23:15;10.90;;;4.85;;
39728;SDS011;25402;42.004;23.088;2023-12-04T09:25:42;9.10;;;5.05;;
39728;SDS011;25402;42.004;23.088;2023-12-04T09:28:09;11.10;;;5.13;;
39728;SDS011;25402;42.004;23.088;2023-12-04T09:30:37;10.23;;;4.88;;
39728;SDS011;25402;42.004;23.088;2023-12-04T09:33:17;10.68;;;4.88;;
39728;SDS011;25402;42.004;23.088;2023-12-04T09:35:44;11.98;;;4.35;;
39728;SDS011;25402;42.004;23.088;2023-12-04T09:38:11;9.27;;;4.40;;
39728;SDS011;25402;42.004;23.088;2023-12-04T09:40:38;11.55;;;5.05;;
39728;SDS011;25402;42.004;23.088;2023-12-04T09:43:06;9.80;;;5.00;;
39728;SDS011;25402;42.004;23.088;2023-12-04T09:45:35;12.02;;;4.45;;
39728;SDS011;25402;42.004;23.088;2023-12-04T09:48:04;8.73;;;4.65;;
39728;SDS011;25402;42.004;23.088;2023-12-04T09:50:34;11.88;;;4.78;;
39728;SDS011;25402;42.004;23.088;2023-12-04T09:53:04;11.63;;;5.20;;
39728;SDS011;25402;42.004;23.088;2023-12-04T09:55:36;16.02;;;6.38;;
39728;SDS011;25402;42.004;23.088;2023-12-04T09:58:04;16.23;;;6.63;;
39728;SDS011;25402;42.004;23.088;2023-12-04T10:00:31;10.82;;;4.25;;
39728;SDS011;25402;42.004;23.088;2023-12-04T10:03:01;12.18;;;5.05;;
39728;SDS011;25402;42.004;23.088;2023-12-04T10:05:30;11.77;;;4.68;;
39728;SDS011;25402;42.004;23.088;2023-12-04T10:07:59;12.32;;;4.68;;
39728;SDS011;25402;42.004;23.088;2023-12-04T10:10:26;11.85;;;4.82;;
39728;SDS011;25402;42.004;23.088;2023-12-04T10:12:53;9.63;;;4.82;;
39728;SDS011;25402;42.004;23.088;2023-12-04T10:15:20;11.27;;;4.38;;
39728;SDS011;25402;42.004;23.088;2023-12-04T10:17:47;13.88;;;5.18;;
39728;SDS011;25402;42.004;23.088;2023-12-04T10:20:16;13.10;;;6.10;;
39728;SDS011;25402;42.004;23.088;2023-12-04T10:22:54;14.18;;;5.80;;
39728;SDS011;25402;42.004;23.088;2023-12-04T10:25:22;11.70;;;5.22;;
39728;SDS011;25402;42.004;23.088;2023-12-04T10:27:51;13.73;;;6.15;;
39728;SDS011;25402;42.004;23.088;2023-12-04T10:30:22;8.60;;;4.47;;
39728;SDS011;25402;42.004;23.088;2023-12-04T10:32:55;15.98;;;5.75;;
39728;SDS011;25402;42.004;23.088;2023-12-04T10:37:59;10.85;;;5.68;;
39728;SDS011;25402;42.004;23.088;2023-12-04T10:40:31;14.13;;;5.18;;
39728;SDS011;25402;42.004;23.088;2023-12-04T10:43:11;8.35;;;4.60;;
39728;SDS011;25402;42.004;23.088;2023-12-04T10:45:42;10.77;;;3.92;;
39728;SDS011;25402;42.004;23.088;2023-12-04T10:48:15;9.15;;;4.78;;
39728;SDS011;25402;42.004;23.088;2023-12-04T10:50:48;11.35;;;5.07;;
39728;SDS011;25402;42.004;23.088;2023-12-04T10:53:21;9.48;;;4.43;;
39728;SDS011;25402;42.004;23.088;2023-12-04T10:55:52;14.18;;;5.40;;
39728;SDS011;25402;42.004;23.088;2023-12-04T10:58:25;13.40;;;5.93;;
39728;SDS011;25402;42.004;23.088;2023-12-04T11:00:54;8.93;;;5.38;;
39728;SDS011;25402;42.004;23.088;2023-12-04T11:03:34;9.68;;;4.78;;
39728;SDS011;25402;42.004;23.088;2023-12-04T11:06:09;10.07;;;5.10;;
39728;SDS011;25402;42.004;23.088;2023-12-04T11:08:38;10.35;;;5.55;;
39728;SDS011;25402;42.004;23.088;2023-12-04T11:11:08;10.45;;;5.55;;
39728;SDS011;25402;42.004;23.088;2023-12-04T11:13:41;10.23;;;4.80;;
39728;SDS011;25402;42.004;23.088;2023-12-04T11:16:15;9.20;;;4.82;;
39728;SDS011;25402;42.004;23.088;2023-12-04T11:19:13;8.48;;;4.18;;
39728;SDS011;25402;42.004;23.088;2023-12-04T11:22:04;7.20;;;3.92;;
39728;SDS011;25402;42.004;23.088;2023-12-04T11:24:34;7.00;;;3.72;;
39728;SDS011;25402;42.004;23.088;2023-12-04T11:27:03;7.47;;;3.78;;
39728;SDS011;25402;42.004;23.088;2023-12-04T11:29:30;10.52;;;4.35;;
39728;SDS011;25402;42.004;23.088;2023-12-04T11:32:05;11.30;;;4.25;;
39728;SDS011;25402;42.004;23.088;2023-12-04T11:34:34;14.10;;;3.88;;
39728;SDS011;25402;42.004;23.088;2023-12-04T11:37:04;5.70;;;3.30;;
39728;SDS011;25402;42.004;23.088;2023-12-04T11:39:33;9.05;;;3.60;;
39728;SDS011;25402;42.004;23.088;2023-12-04T11:42:12;6.85;;;3.65;;
39728;SDS011;25402;42.004;23.088;2023-12-04T11:44:47;7.82;;;3.22;;
39728;SDS011;25402;42.004;23.088;2023-12-04T11:47:15;10.07;;;4.00;;
39728;SDS011;25402;42.004;23.088;2023-12-04T11:49:43;7.28;;;3.45;;
39728;SDS011;25402;42.004;23.088;2023-12-04T11:52:13;8.25;;;4.22;;
39728;SDS011;25402;42.004;23.088;2023-12-04T11:54:56;9.15;;;4.70;;
39728;SDS011;25402;42.004;23.088;2023-12-04T11:57:25;16.63;;;3.92;;
39728;SDS011;25402;42.004;23.088;2023-12-04T12:00:03;10.25;;;3.50;;
39728;SDS011;25402;42.004;23.088;2023-12-04T12:02:40;8.13;;;3.08;;
39728;SDS011;25402;42.004;23.088;2023-12-04T12:05:08;5.88;;;3.13;;
39728;SDS011;25402;42.004;23.088;2023-12-04T12:07:36;7.38;;;3.60;;
39728;SDS011;25402;42.004;23.088;2023-12-04T12:10:04;7.32;;;2.97;;
39728;SDS011;25402;42.004;23.088;2023-12-04T12:12:31;11.50;;;4.40;;
39728;SDS011;25402;42.004;23.088;2023-12-04T12:15:01;6.53;;;3.42;;
39728;SDS011;25402;42.004;23.088;2023-12-04T12:17:34;7.43;;;3.38;;
39728;SDS011;25402;42.004;23.088;2023-12-04T12:20:09;6.93;;;3.72;;
39728;SDS011;25402;42.004;23.088;2023-12-04T12:22:43;6.07;;;3.43;;
39728;SDS011;25402;42.004;23.088;2023-12-04T12:25:11;11.25;;;3.60;;
39728;SDS011;25402;42.004;23.088;2023-12-04T12:27:38;8.48;;;3.47;;
39728;SDS011;25402;42.004;23.088;2023-12-04T12:30:06;4.82;;;3.22;;
39728;SDS011;25402;42.004;23.088;2023-12-04T12:32:35;9.30;;;3.35;;
39728;SDS011;25402;42.004;23.088;2023-12-04T12:35:06;10.45;;;3.53;;
39728;SDS011;25402;42.004;23.088;2023-12-04T12:37:34;8.30;;;3.40;;
39728;SDS011;25402;42.004;23.088;2023-12-04T12:40:05;6.15;;;3.47;;
39728;SDS011;25402;42.004;23.088;2023-12-04T12:42:34;7.50;;;3.22;;
39728;SDS011;25402;42.004;23.088;2023-12-04T12:45:03;5.80;;;3.55;;
39728;SDS011;25402;42.004;23.088;2023-12-04T12:47:37;10.13;;;3.70;;
39728;SDS011;25402;42.004;23.088;2023-12-04T12:50:07;5.18;;;3.20;;
39728;SDS011;25402;42.004;23.088;2023-12-04T12:52:38;5.90;;;3.72;;
39728;SDS011;25402;42.004;23.088;2023-12-04T12:55:08;6.75;;;3.33;;
39728;SDS011;25402;42.004;23.088;2023-12-04T12:57:36;13.10;;;3.75;;
39728;SDS011;25402;42.004;23.088;2023-12-04T13:00:04;13.02;;;3.50;;
39728;SDS011;25402;42.004;23.088;2023-12-04T13:02:36;20.27;;;6.15;;
39728;SDS011;25402;42.004;23.088;2023-12-04T13:05:04;25.65;;;12.80;;
39728;SDS011;25402;42.004;23.088;2023-12-04T13:07:32;23.38;;;11.23;;
39728;SDS011;25402;42.004;23.088;2023-12-04T13:09:59;29.67;;;13.02;;
39728;SDS011;25402;42.004;23.088;2023-12-04T13:12:31;17.63;;;8.80;;
39728;SDS011;25402;42.004;23.088;2023-12-04T13:14:58;29.02;;;11.73;;
39728;SDS011;25402;42.004;23.088;2023-12-04T13:17:26;10.18;;;4.40;;
39728;SDS011;25402;42.004;23.088;2023-12-04T13:19:53;9.45;;;4.22;;
39728;SDS011;25402;42.004;23.088;2023-12-04T13:22:21;11.88;;;4.25;;
39728;SDS011;25402;42.004;23.088;2023-12-04T13:24:48;9.90;;;3.58;;
39728;SDS011;25402;42.004;23.088;2023-12-04T13:27:15;8.52;;;3.40;;
39728;SDS011;25402;42.004;23.088;2023-12-04T13:29:44;9.85;;;3.95;;
39728;SDS011;25402;42.004;23.088;2023-12-04T13:32:15;9.00;;;3.40;;
39728;SDS011;25402;42.004;23.088;2023-12-04T13:34:42;8.75;;;3.50;;
39728;SDS011;25402;42.004;23.088;2023-12-04T13:37:13;10.55;;;3.78;;
39728;SDS011;25402;42.004;23.088;2023-12-04T13:39:47;7.50;;;3.75;;
39728;SDS011;25402;42.004;23.088;2023-12-04T13:42:22;13.95;;;3.70;;
39728;SDS011;25402;42.004;23.088;2023-12-04T13:45:12;11.02;;;4.45;;
39728;SDS011;25402;42.004;23.088;2023-12-04T13:47:40;15.13;;;4.00;;
39728;SDS011;25402;42.004;23.088;2023-12-04T13:50:09;20.52;;;4.80;;
39728;SDS011;25402;42.004;23.088;2023-12-04T13:52:37;14.20;;;4.65;;
39728;SDS011;25402;42.004;23.088;2023-12-04T13:55:07;12.43;;;3.60;;
39728;SDS011;25402;42.004;23.088;2023-12-04T13:57:42;9.15;;;3.83;;
39728;SDS011;25402;42.004;23.088;2023-12-04T14:00:26;10.40;;;3.53;;
39728;SDS011;25402;42.004;23.088;2023-12-04T14:02:54;10.95;;;4.22;;
39728;SDS011;25402;42.004;23.088;2023-12-04T14:05:29;13.25;;;5.22;;
39728;SDS011;25402;42.004;23.088;2023-12-04T14:07:57;13.85;;;4.45;;
39728;SDS011;25402;42.004;23.088;2023-12-04T14:10:25;10.43;;;4.47;;
39728;SDS011;25402;42.004;23.088;2023-12-04T14:12:54;20.63;;;5.80;;
39728;SDS011;25402;42.004;23.088;2023-12-04T14:15:25;16.02;;;4.10;;
39728;SDS011;25402;42.004;23.088;2023-12-04T14:18:06;14.43;;;4.53;;
39728;SDS011;25402;42.004;23.088;2023-12-04T14:20:35;12.45;;;4.43;;
39728;SDS011;25402;42.004;23.088;2023-12-04T14:23:07;20.45;;;5.05;;
39728;SDS011;25402;42.004;23.088;2023-12-04T14:25:37;10.93;;;4.15;;
39728;SDS011;25402;42.004;23.088;2023-12-04T14:28:09;13.20;;;4.22;;
39728;SDS011;25402;42.004;23.088;2023-12-04T14:30:39;15.27;;;4.93;;
39728;SDS011;25402;42.004;23.088;2023-12-04T14:33:08;8.25;;;4.57;;
39728;SDS011;25402;42.004;23.088;2023-12-04T14:35:36;16.00;;;5.47;;